sensor_id;sensor_type;location;lat;lon;timestamp;P1;durP1;ratioP1;P2;durP2;ratioP2
71715;SDS011;59568;52.128;5.434;2024-02-26T00:02:16;3.88;;;1.85;;
71715;SDS011;59568;52.128;5.434;2024-02-26T00:04:44;4.65;;;1.90;;
71715;SDS011;59568;52.128;5.434;2024-02-26T00:07:11;4.33;;;2.33;;
71715;SDS011;59568;52.128;5.434;2024-02-26T00:09:38;2.80;;;2.00;;
71715;SDS011;59568;52.128;5.434;2024-02-26T00:12:05;4.05;;;2.50;;
71715;SDS011;59568;52.128;5.434;2024-02-26T00:14:32;4.80;;;2.13;;
71715;SDS011;59568;52.128;5.434;2024-02-26T00:16:59;3.97;;;2.55;;
71715;SDS011;59568;52.128;5.434;2024-02-26T00:19:26;4.40;;;2.63;;
71715;SDS011;59568;52.128;5.434;2024-02-26T00:21:54;5.63;;;2.70;;
71715;SDS011;59568;52.128;5.434;2024-02-26T00:24:22;5.03;;;3.05;;
71715;SDS011;59568;52.128;5.434;2024-02-26T00:26:49;4.35;;;2.55;;
71715;SDS011;59568;52.128;5.434;2024-02-26T00:29:20;5.13;;;2.78;;
71715;SDS011;59568;52.128;5.434;2024-02-26T00:31:47;4.17;;;2.33;;
71715;SDS011;59568;52.128;5.434;2024-02-26T00:34:14;4.93;;;2.40;;
71715;SDS011;59568;52.128;5.434;2024-02-26T00:36:41;4.30;;;2.50;;
71715;SDS011;59568;52.128;5.434;2024-02-26T00:39:08;3.40;;;2.10;;
71715;SDS011;59568;52.128;5.434;2024-02-26T00:41:39;4.00;;;2.67;;
71715;SDS011;59568;52.128;5.434;2024-02-26T00:44:07;5.37;;;2.77;;
71715;SDS011;59568;52.128;5.434;2024-02-26T00:46:34;4.53;;;2.75;;
71715;SDS011;59568;52.128;5.434;2024-02-26T00:49:01;4.55;;;2.90;;
71715;SDS011;59568;52.128;5.434;2024-02-26T00:51:30;4.82;;;2.55;;
71715;SDS011;59568;52.128;5.434;2024-02-26T00:53:57;3.67;;;2.47;;
71715;SDS011;59568;52.128;5.434;2024-02-26T00:56:24;4.37;;;2.80;;
71715;SDS011;59568;52.128;5.434;2024-02-26T00:58:51;6.40;;;3.13;;
71715;SDS011;59568;52.128;5.434;2024-02-26T01:01:18;7.95;;;3.75;;
71715;SDS011;59568;52.128;5.434;2024-02-26T01:03:45;6.80;;;3.33;;
71715;SDS011;59568;52.128;5.434;2024-02-26T01:06:12;4.10;;;2.67;;
71715;SDS011;59568;52.128;5.434;2024-02-26T01:08:39;5.87;;;2.83;;
71715;SDS011;59568;52.128;5.434;2024-02-26T01:11:06;6.65;;;3.10;;
71715;SDS011;59568;52.128;5.434;2024-02-26T01:13:34;5.15;;;3.30;;
71715;SDS011;59568;52.128;5.434;2024-02-26T01:16:01;5.47;;;3.35;;
71715;SDS011;59568;52.128;5.434;2024-02-26T01:18:28;4.43;;;3.13;;
71715;SDS011;59568;52.128;5.434;2024-02-26T01:20:56;5.70;;;2.97;;
71715;SDS011;59568;52.128;5.434;2024-02-26T01:23:22;6.05;;;2.65;;
71715;SDS011;59568;52.128;5.434;2024-02-26T01:25:50;5.25;;;3.13;;
71715;SDS011;59568;52.128;5.434;2024-02-26T01:28:17;6.57;;;3.22;;
71715;SDS011;59568;52.128;5.434;2024-02-26T01:30:44;8.82;;;3.20;;
71715;SDS011;59568;52.128;5.434;2024-02-26T01:33:11;6.20;;;2.83;;
71715;SDS011;59568;52.128;5.434;2024-02-26T01:35:38;6.22;;;3.33;;
71715;SDS011;59568;52.128;5.434;2024-02-26T01:38:05;5.88;;;3.17;;
71715;SDS011;59568;52.128;5.434;2024-02-26T01:40:32;5.28;;;3.10;;
71715;SDS011;59568;52.128;5.434;2024-02-26T01:42:59;6.95;;;3.42;;
71715;SDS011;59568;52.128;5.434;2024-02-26T01:45:27;5.70;;;3.33;;
71715;SDS011;59568;52.128;5.434;2024-02-26T01:47:55;5.65;;;2.70;;
71715;SDS011;59568;52.128;5.434;2024-02-26T01:50:23;5.18;;;2.92;;
71715;SDS011;59568;52.128;5.434;2024-02-26T01:52:51;4.65;;;2.95;;
71715;SDS011;59568;52.128;5.434;2024-02-26T01:55:19;5.15;;;3.17;;
71715;SDS011;59568;52.128;5.434;2024-02-26T01:57:48;5.67;;;3.30;;
71715;SDS011;59568;52.128;5.434;2024-02-26T02:00:18;5.60;;;2.78;;
71715;SDS011;59568;52.128;5.434;2024-02-26T02:02:47;6.07;;;3.20;;
71715;SDS011;59568;52.128;5.434;2024-02-26T02:05:16;5.03;;;2.70;;
71715;SDS011;59568;52.128;5.434;2024-02-26T02:07:46;4.90;;;2.38;;
71715;SDS011;59568;52.128;5.434;2024-02-26T02:10:16;4.23;;;2.93;;
71715;SDS011;59568;52.128;5.434;2024-02-26T02:12:45;5.95;;;3.72;;
71715;SDS011;59568;52.128;5.434;2024-02-26T02:15:12;4.70;;;2.67;;
71715;SDS011;59568;52.128;5.434;2024-02-26T02:17:39;6.22;;;2.83;;
71715;SDS011;59568;52.128;5.434;2024-02-26T02:20:08;5.80;;;3.22;;
71715;SDS011;59568;52.128;5.434;2024-02-26T02:22:45;5.37;;;2.80;;
71715;SDS011;59568;52.128;5.434;2024-02-26T02:25:13;4.80;;;2.85;;
71715;SDS011;59568;52.128;5.434;2024-02-26T02:27:40;3.80;;;2.35;;
71715;SDS011;59568;52.128;5.434;2024-02-26T02:30:08;5.03;;;3.17;;
71715;SDS011;59568;52.128;5.434;2024-02-26T02:32:37;5.05;;;3.33;;
71715;SDS011;59568;52.128;5.434;2024-02-26T02:35:08;4.97;;;2.87;;
71715;SDS011;59568;52.128;5.434;2024-02-26T02:37:35;4.95;;;3.00;;
71715;SDS011;59568;52.128;5.434;2024-02-26T02:40:02;5.70;;;3.40;;
71715;SDS011;59568;52.128;5.434;2024-02-26T02:42:29;5.63;;;3.03;;
71715;SDS011;59568;52.128;5.434;2024-02-26T02:44:56;5.43;;;2.92;;
71715;SDS011;59568;52.128;5.434;2024-02-26T02:47:23;4.87;;;2.83;;
71715;SDS011;59568;52.128;5.434;2024-02-26T02:49:50;7.50;;;2.95;;
71715;SDS011;59568;52.128;5.434;2024-02-26T02:52:17;5.63;;;3.15;;
71715;SDS011;59568;52.128;5.434;2024-02-26T02:54:44;5.35;;;2.85;;
71715;SDS011;59568;52.128;5.434;2024-02-26T02:57:11;4.88;;;2.72;;
71715;SDS011;59568;52.128;5.434;2024-02-26T02:59:38;5.07;;;2.77;;
71715;SDS011;59568;52.128;5.434;2024-02-26T03:02:06;7.15;;;3.00;;
71715;SDS011;59568;52.128;5.434;2024-02-26T03:04:33;5.88;;;3.22;;
71715;SDS011;59568;52.128;5.434;2024-02-26T03:07:00;6.63;;;2.83;;
71715;SDS011;59568;52.128;5.434;2024-02-26T03:09:27;6.03;;;3.40;;
71715;SDS011;59568;52.128;5.434;2024-02-26T03:11:54;6.10;;;2.97;;
71715;SDS011;59568;52.128;5.434;2024-02-26T03:14:21;5.60;;;3.30;;
71715;SDS011;59568;52.128;5.434;2024-02-26T03:16:48;6.13;;;3.35;;
71715;SDS011;59568;52.128;5.434;2024-02-26T03:19:15;6.93;;;3.03;;
71715;SDS011;59568;52.128;5.434;2024-02-26T03:21:45;5.13;;;2.97;;
71715;SDS011;59568;52.128;5.434;2024-02-26T03:24:12;7.00;;;3.03;;
71715;SDS011;59568;52.128;5.434;2024-02-26T03:26:39;4.70;;;2.95;;
71715;SDS011;59568;52.128;5.434;2024-02-26T03:29:06;5.72;;;3.33;;
71715;SDS011;59568;52.128;5.434;2024-02-26T03:31:33;6.70;;;3.08;;
71715;SDS011;59568;52.128;5.434;2024-02-26T03:34:00;6.45;;;3.75;;
71715;SDS011;59568;52.128;5.434;2024-02-26T03:36:27;7.43;;;3.57;;
71715;SDS011;59568;52.128;5.434;2024-02-26T03:38:54;7.82;;;3.33;;
71715;SDS011;59568;52.128;5.434;2024-02-26T03:41:21;6.03;;;3.50;;
71715;SDS011;59568;52.128;5.434;2024-02-26T03:43:48;7.20;;;3.88;;
71715;SDS011;59568;52.128;5.434;2024-02-26T03:46:15;7.20;;;3.88;;
71715;SDS011;59568;52.128;5.434;2024-02-26T03:48:41;6.27;;;3.57;;
71715;SDS011;59568;52.128;5.434;2024-02-26T03:51:09;6.88;;;3.38;;
71715;SDS011;59568;52.128;5.434;2024-02-26T03:53:37;7.55;;;4.03;;
71715;SDS011;59568;52.128;5.434;2024-02-26T03:56:04;7.78;;;4.15;;
71715;SDS011;59568;52.128;5.434;2024-02-26T03:58:32;7.40;;;3.90;;
71715;SDS011;59568;52.128;5.434;2024-02-26T04:01:00;7.00;;;4.13;;
71715;SDS011;59568;52.128;5.434;2024-02-26T04:03:27;8.40;;;4.30;;
71715;SDS011;59568;52.128;5.434;2024-02-26T04:05:54;6.78;;;4.07;;
71715;SDS011;59568;52.128;5.434;2024-02-26T04:08:21;9.13;;;4.25;;
71715;SDS011;59568;52.128;5.434;2024-02-26T04:10:48;7.68;;;4.18;;
71715;SDS011;59568;52.128;5.434;2024-02-26T04:13:17;7.43;;;3.67;;
71715;SDS011;59568;52.128;5.434;2024-02-26T04:15:44;7.90;;;4.13;;
71715;SDS011;59568;52.128;5.434;2024-02-26T04:18:11;7.30;;;4.15;;
71715;SDS011;59568;52.128;5.434;2024-02-26T04:20:38;6.47;;;3.55;;
71715;SDS011;59568;52.128;5.434;2024-02-26T04:23:05;7.95;;;4.20;;
71715;SDS011;59568;52.128;5.434;2024-02-26T04:25:32;6.60;;;3.70;;
71715;SDS011;59568;52.128;5.434;2024-02-26T04:27:59;6.10;;;3.88;;
71715;SDS011;59568;52.128;5.434;2024-02-26T04:30:26;6.60;;;3.72;;
71715;SDS011;59568;52.128;5.434;2024-02-26T04:32:53;6.10;;;3.63;;
71715;SDS011;59568;52.128;5.434;2024-02-26T04:35:20;6.40;;;3.80;;
71715;SDS011;59568;52.128;5.434;2024-02-26T04:37:47;6.63;;;3.70;;
71715;SDS011;59568;52.128;5.434;2024-02-26T04:40:13;6.82;;;3.28;;
71715;SDS011;59568;52.128;5.434;2024-02-26T04:42:40;5.93;;;3.40;;
71715;SDS011;59568;52.128;5.434;2024-02-26T04:45:07;5.57;;;3.20;;
71715;SDS011;59568;52.128;5.434;2024-02-26T04:47:35;8.32;;;4.22;;
71715;SDS011;59568;52.128;5.434;2024-02-26T04:50:02;6.83;;;3.77;;
71715;SDS011;59568;52.128;5.434;2024-02-26T04:52:29;7.60;;;3.58;;
71715;SDS011;59568;52.128;5.434;2024-02-26T04:54:56;6.70;;;3.15;;
71715;SDS011;59568;52.128;5.434;2024-02-26T04:57:23;7.85;;;3.83;;
71715;SDS011;59568;52.128;5.434;2024-02-26T04:59:50;6.45;;;3.97;;
71715;SDS011;59568;52.128;5.434;2024-02-26T05:02:17;7.00;;;3.67;;
71715;SDS011;59568;52.128;5.434;2024-02-26T05:04:44;6.20;;;3.95;;
71715;SDS011;59568;52.128;5.434;2024-02-26T05:07:11;6.78;;;3.55;;
71715;SDS011;59568;52.128;5.434;2024-02-26T05:09:39;6.30;;;3.67;;
71715;SDS011;59568;52.128;5.434;2024-02-26T05:12:06;8.38;;;4.30;;
71715;SDS011;59568;52.128;5.434;2024-02-26T05:14:33;6.07;;;3.37;;
71715;SDS011;59568;52.128;5.434;2024-02-26T05:17:00;7.20;;;3.75;;
71715;SDS011;59568;52.128;5.434;2024-02-26T05:19:27;8.15;;;4.20;;
71715;SDS011;59568;52.128;5.434;2024-02-26T05:21:55;7.07;;;3.88;;
71715;SDS011;59568;52.128;5.434;2024-02-26T05:24:21;7.65;;;4.00;;
71715;SDS011;59568;52.128;5.434;2024-02-26T05:26:49;6.77;;;3.77;;
71715;SDS011;59568;52.128;5.434;2024-02-26T05:29:16;8.07;;;4.75;;
71715;SDS011;59568;52.128;5.434;2024-02-26T05:31:43;7.13;;;4.32;;
71715;SDS011;59568;52.128;5.434;2024-02-26T05:34:10;9.00;;;4.20;;
71715;SDS011;59568;52.128;5.434;2024-02-26T05:36:37;6.03;;;3.80;;
71715;SDS011;59568;52.128;5.434;2024-02-26T05:39:05;7.43;;;3.90;;
71715;SDS011;59568;52.128;5.434;2024-02-26T05:41:32;6.70;;;3.95;;
71715;SDS011;59568;52.128;5.434;2024-02-26T05:43:59;8.13;;;3.53;;
71715;SDS011;59568;52.128;5.434;2024-02-26T05:46:26;7.15;;;4.05;;
71715;SDS011;59568;52.128;5.434;2024-02-26T05:48:54;8.75;;;4.13;;
71715;SDS011;59568;52.128;5.434;2024-02-26T05:51:21;7.83;;;4.40;;
71715;SDS011;59568;52.128;5.434;2024-02-26T05:53:48;6.15;;;3.53;;
71715;SDS011;59568;52.128;5.434;2024-02-26T05:56:24;8.25;;;4.75;;
71715;SDS011;59568;52.128;5.434;2024-02-26T05:58:51;7.38;;;4.20;;
71715;SDS011;59568;52.128;5.434;2024-02-26T06:01:19;7.35;;;3.78;;
71715;SDS011;59568;52.128;5.434;2024-02-26T06:03:46;9.70;;;4.47;;
71715;SDS011;59568;52.128;5.434;2024-02-26T06:06:13;8.02;;;4.70;;
71715;SDS011;59568;52.128;5.434;2024-02-26T06:08:44;9.25;;;4.25;;
71715;SDS011;59568;52.128;5.434;2024-02-26T06:11:11;6.90;;;4.60;;
71715;SDS011;59568;52.128;5.434;2024-02-26T06:13:38;9.98;;;4.55;;
71715;SDS011;59568;52.128;5.434;2024-02-26T06:16:07;10.37;;;4.87;;
71715;SDS011;59568;52.128;5.434;2024-02-26T06:18:35;9.25;;;4.45;;
71715;SDS011;59568;52.128;5.434;2024-02-26T06:21:02;9.65;;;4.28;;
71715;SDS011;59568;52.128;5.434;2024-02-26T06:23:29;9.05;;;4.40;;
71715;SDS011;59568;52.128;5.434;2024-02-26T06:25:56;9.30;;;4.47;;
71715;SDS011;59568;52.128;5.434;2024-02-26T06:28:23;9.00;;;4.23;;
71715;SDS011;59568;52.128;5.434;2024-02-26T06:30:50;8.30;;;4.20;;
71715;SDS011;59568;52.128;5.434;2024-02-26T06:33:18;9.27;;;4.75;;
71715;SDS011;59568;52.128;5.434;2024-02-26T06:35:46;8.93;;;4.78;;
71715;SDS011;59568;52.128;5.434;2024-02-26T06:38:13;11.27;;;5.78;;
71715;SDS011;59568;52.128;5.434;2024-02-26T06:40:40;10.20;;;4.60;;
71715;SDS011;59568;52.128;5.434;2024-02-26T06:43:07;8.40;;;5.13;;
71715;SDS011;59568;52.128;5.434;2024-02-26T06:45:34;10.07;;;4.60;;
71715;SDS011;59568;52.128;5.434;2024-02-26T06:48:01;11.10;;;4.72;;
71715;SDS011;59568;52.128;5.434;2024-02-26T06:50:29;10.52;;;4.65;;
71715;SDS011;59568;52.128;5.434;2024-02-26T06:52:56;8.27;;;4.10;;
71715;SDS011;59568;52.128;5.434;2024-02-26T06:55:23;13.40;;;6.45;;
71715;SDS011;59568;52.128;5.434;2024-02-26T06:57:50;13.18;;;5.88;;
71715;SDS011;59568;52.128;5.434;2024-02-26T07:00:17;9.23;;;4.53;;
71715;SDS011;59568;52.128;5.434;2024-02-26T07:02:44;11.82;;;5.13;;
71715;SDS011;59568;52.128;5.434;2024-02-26T07:05:11;11.93;;;5.73;;
71715;SDS011;59568;52.128;5.434;2024-02-26T07:07:39;8.32;;;4.70;;
71715;SDS011;59568;52.128;5.434;2024-02-26T07:10:07;11.23;;;6.30;;
71715;SDS011;59568;52.128;5.434;2024-02-26T07:12:34;11.60;;;5.25;;
71715;SDS011;59568;52.128;5.434;2024-02-26T07:15:01;13.27;;;6.47;;
71715;SDS011;59568;52.128;5.434;2024-02-26T07:17:29;14.30;;;5.90;;
71715;SDS011;59568;52.128;5.434;2024-02-26T07:19:56;12.40;;;6.03;;
71715;SDS011;59568;52.128;5.434;2024-02-26T07:22:23;14.25;;;6.15;;
71715;SDS011;59568;52.128;5.434;2024-02-26T07:24:51;12.13;;;5.38;;
71715;SDS011;59568;52.128;5.434;2024-02-26T07:27:18;13.82;;;6.38;;
71715;SDS011;59568;52.128;5.434;2024-02-26T07:29:45;15.40;;;6.70;;
71715;SDS011;59568;52.128;5.434;2024-02-26T07:32:13;11.18;;;5.90;;
71715;SDS011;59568;52.128;5.434;2024-02-26T07:34:40;17.42;;;6.95;;
71715;SDS011;59568;52.128;5.434;2024-02-26T07:37:11;10.30;;;4.68;;
71715;SDS011;59568;52.128;5.434;2024-02-26T07:39:39;15.02;;;7.20;;
71715;SDS011;59568;52.128;5.434;2024-02-26T07:42:06;15.93;;;6.70;;
71715;SDS011;59568;52.128;5.434;2024-02-26T07:44:33;17.00;;;8.05;;
71715;SDS011;59568;52.128;5.434;2024-02-26T07:47:00;15.43;;;6.63;;
71715;SDS011;59568;52.128;5.434;2024-02-26T07:49:27;16.25;;;7.90;;
71715;SDS011;59568;52.128;5.434;2024-02-26T07:51:55;16.45;;;7.20;;
71715;SDS011;59568;52.128;5.434;2024-02-26T07:54:24;16.83;;;7.40;;
71715;SDS011;59568;52.128;5.434;2024-02-26T07:56:52;15.52;;;6.93;;
71715;SDS011;59568;52.128;5.434;2024-02-26T07:59:19;15.95;;;8.05;;
71715;SDS011;59568;52.128;5.434;2024-02-26T08:01:49;18.35;;;8.18;;
71715;SDS011;59568;52.128;5.434;2024-02-26T08:04:23;14.68;;;7.15;;
71715;SDS011;59568;52.128;5.434;2024-02-26T08:06:51;15.70;;;7.23;;
71715;SDS011;59568;52.128;5.434;2024-02-26T08:09:18;17.83;;;7.47;;
71715;SDS011;59568;52.128;5.434;2024-02-26T08:11:45;15.18;;;7.78;;
71715;SDS011;59568;52.128;5.434;2024-02-26T08:14:12;16.10;;;8.02;;
71715;SDS011;59568;52.128;5.434;2024-02-26T08:16:40;13.65;;;7.47;;
71715;SDS011;59568;52.128;5.434;2024-02-26T08:19:07;14.53;;;7.13;;
71715;SDS011;59568;52.128;5.434;2024-02-26T08:21:37;13.60;;;7.75;;
71715;SDS011;59568;52.128;5.434;2024-02-26T08:24:04;16.55;;;7.32;;
71715;SDS011;59568;52.128;5.434;2024-02-26T08:26:34;15.63;;;6.65;;
71715;SDS011;59568;52.128;5.434;2024-02-26T08:29:01;11.93;;;6.47;;
71715;SDS011;59568;52.128;5.434;2024-02-26T08:31:28;11.37;;;6.17;;
71715;SDS011;59568;52.128;5.434;2024-02-26T08:33:56;10.20;;;5.60;;
71715;SDS011;59568;52.128;5.434;2024-02-26T08:36:23;11.65;;;5.55;;
71715;SDS011;59568;52.128;5.434;2024-02-26T08:38:50;12.77;;;5.53;;
71715;SDS011;59568;52.128;5.434;2024-02-26T08:41:17;10.00;;;5.13;;
71715;SDS011;59568;52.128;5.434;2024-02-26T08:43:44;9.87;;;4.57;;
71715;SDS011;59568;52.128;5.434;2024-02-26T08:46:12;8.82;;;4.80;;
71715;SDS011;59568;52.128;5.434;2024-02-26T08:48:40;9.50;;;4.65;;
71715;SDS011;59568;52.128;5.434;2024-02-26T08:51:07;10.93;;;4.88;;
71715;SDS011;59568;52.128;5.434;2024-02-26T08:53:35;9.57;;;4.85;;
71715;SDS011;59568;52.128;5.434;2024-02-26T08:56:09;9.03;;;4.00;;
71715;SDS011;59568;52.128;5.434;2024-02-26T08:58:44;8.32;;;4.28;;
71715;SDS011;59568;52.128;5.434;2024-02-26T09:01:13;9.63;;;4.72;;
71715;SDS011;59568;52.128;5.434;2024-02-26T09:03:40;7.88;;;3.88;;
71715;SDS011;59568;52.128;5.434;2024-02-26T09:06:07;9.07;;;4.57;;
71715;SDS011;59568;52.128;5.434;2024-02-26T09:08:34;7.80;;;4.03;;
71715;SDS011;59568;52.128;5.434;2024-02-26T09:11:04;8.48;;;4.07;;
71715;SDS011;59568;52.128;5.434;2024-02-26T09:13:31;8.20;;;3.78;;
71715;SDS011;59568;52.128;5.434;2024-02-26T09:15:58;9.38;;;3.95;;
71715;SDS011;59568;52.128;5.434;2024-02-26T09:18:26;6.47;;;3.38;;
71715;SDS011;59568;52.128;5.434;2024-02-26T09:20:53;9.27;;;4.40;;
71715;SDS011;59568;52.128;5.434;2024-02-26T09:23:20;8.77;;;4.45;;
71715;SDS011;59568;52.128;5.434;2024-02-26T09:25:47;8.43;;;3.83;;
71715;SDS011;59568;52.128;5.434;2024-02-26T09:28:14;6.43;;;3.60;;
71715;SDS011;59568;52.128;5.434;2024-02-26T09:30:44;8.10;;;4.00;;
71715;SDS011;59568;52.128;5.434;2024-02-26T09:33:11;8.60;;;3.70;;
71715;SDS011;59568;52.128;5.434;2024-02-26T09:35:40;7.45;;;3.70;;
71715;SDS011;59568;52.128;5.434;2024-02-26T09:38:08;5.30;;;3.13;;
71715;SDS011;59568;52.128;5.434;2024-02-26T09:40:35;7.78;;;3.75;;
71715;SDS011;59568;52.128;5.434;2024-02-26T09:43:04;7.88;;;3.67;;
71715;SDS011;59568;52.128;5.434;2024-02-26T09:45:32;8.63;;;4.27;;
71715;SDS011;59568;52.128;5.434;2024-02-26T09:48:01;6.60;;;3.75;;
71715;SDS011;59568;52.128;5.434;2024-02-26T09:50:31;6.85;;;3.90;;
71715;SDS011;59568;52.128;5.434;2024-02-26T09:52:58;7.20;;;3.40;;
71715;SDS011;59568;52.128;5.434;2024-02-26T09:55:29;7.45;;;4.10;;
71715;SDS011;59568;52.128;5.434;2024-02-26T09:57:56;6.50;;;3.50;;
71715;SDS011;59568;52.128;5.434;2024-02-26T10:00:25;8.95;;;3.78;;
71715;SDS011;59568;52.128;5.434;2024-02-26T10:03:02;7.07;;;3.60;;
71715;SDS011;59568;52.128;5.434;2024-02-26T10:05:31;5.88;;;2.95;;
71715;SDS011;59568;52.128;5.434;2024-02-26T10:08:00;5.13;;;2.58;;
71715;SDS011;59568;52.128;5.434;2024-02-26T10:10:28;7.90;;;3.27;;
71715;SDS011;59568;52.128;5.434;2024-02-26T10:12:56;7.15;;;3.50;;
71715;SDS011;59568;52.128;5.434;2024-02-26T10:15:23;6.75;;;3.33;;
71715;SDS011;59568;52.128;5.434;2024-02-26T10:17:50;5.38;;;2.80;;
71715;SDS011;59568;52.128;5.434;2024-02-26T10:20:17;5.97;;;2.90;;
71715;SDS011;59568;52.128;5.434;2024-02-26T10:22:48;8.53;;;3.67;;
71715;SDS011;59568;52.128;5.434;2024-02-26T10:25:15;6.22;;;3.38;;
71715;SDS011;59568;52.128;5.434;2024-02-26T10:27:42;5.93;;;2.92;;
71715;SDS011;59568;52.128;5.434;2024-02-26T10:30:16;6.90;;;3.28;;
71715;SDS011;59568;52.128;5.434;2024-02-26T10:32:45;6.45;;;3.22;;
71715;SDS011;59568;52.128;5.434;2024-02-26T10:35:14;5.43;;;2.37;;
71715;SDS011;59568;52.128;5.434;2024-02-26T10:37:42;5.90;;;2.92;;
71715;SDS011;59568;52.128;5.434;2024-02-26T10:40:18;6.80;;;2.55;;
71715;SDS011;59568;52.128;5.434;2024-02-26T10:42:44;5.93;;;3.05;;
71715;SDS011;59568;52.128;5.434;2024-02-26T10:45:12;6.00;;;3.60;;
71715;SDS011;59568;52.128;5.434;2024-02-26T10:47:40;6.03;;;2.83;;
71715;SDS011;59568;52.128;5.434;2024-02-26T10:50:09;6.50;;;2.70;;
71715;SDS011;59568;52.128;5.434;2024-02-26T10:52:36;5.35;;;3.17;;
71715;SDS011;59568;52.128;5.434;2024-02-26T10:55:04;8.02;;;3.33;;
71715;SDS011;59568;52.128;5.434;2024-02-26T10:57:39;6.47;;;2.80;;
71715;SDS011;59568;52.128;5.434;2024-02-26T11:00:08;7.00;;;3.13;;
71715;SDS011;59568;52.128;5.434;2024-02-26T11:02:40;4.38;;;2.50;;
71715;SDS011;59568;52.128;5.434;2024-02-26T11:05:08;6.38;;;2.67;;
71715;SDS011;59568;52.128;5.434;2024-02-26T11:07:35;6.57;;;2.83;;
71715;SDS011;59568;52.128;5.434;2024-02-26T11:10:04;7.47;;;3.35;;
71715;SDS011;59568;52.128;5.434;2024-02-26T11:12:32;7.37;;;3.17;;
71715;SDS011;59568;52.128;5.434;2024-02-26T11:15:03;5.25;;;2.83;;
71715;SDS011;59568;52.128;5.434;2024-02-26T11:17:31;5.78;;;3.33;;
71715;SDS011;59568;52.128;5.434;2024-02-26T11:20:01;6.60;;;3.33;;
71715;SDS011;59568;52.128;5.434;2024-02-26T11:22:32;5.15;;;2.70;;
71715;SDS011;59568;52.128;5.434;2024-02-26T11:25:00;5.73;;;2.90;;
71715;SDS011;59568;52.128;5.434;2024-02-26T11:27:29;6.22;;;3.08;;
71715;SDS011;59568;52.128;5.434;2024-02-26T11:30:02;4.70;;;2.95;;
71715;SDS011;59568;52.128;5.434;2024-02-26T11:32:32;5.82;;;3.03;;
71715;SDS011;59568;52.128;5.434;2024-02-26T11:35:01;4.93;;;2.67;;
71715;SDS011;59568;52.128;5.434;2024-02-26T11:37:32;5.97;;;3.03;;
71715;SDS011;59568;52.128;5.434;2024-02-26T11:40:03;6.43;;;3.00;;
71715;SDS011;59568;52.128;5.434;2024-02-26T11:42:31;6.10;;;2.92;;
71715;SDS011;59568;52.128;5.434;2024-02-26T11:44:59;6.47;;;3.60;;
71715;SDS011;59568;52.128;5.434;2024-02-26T11:47:27;6.53;;;3.47;;
71715;SDS011;59568;52.128;5.434;2024-02-26T11:49:55;5.00;;;2.70;;
71715;SDS011;59568;52.128;5.434;2024-02-26T11:52:22;6.28;;;2.95;;
71715;SDS011;59568;52.128;5.434;2024-02-26T11:54:49;7.30;;;3.25;;
71715;SDS011;59568;52.128;5.434;2024-02-26T11:57:26;5.25;;;2.97;;
71715;SDS011;59568;52.128;5.434;2024-02-26T11:59:55;6.30;;;2.75;;
71715;SDS011;59568;52.128;5.434;2024-02-26T12:05:43;6.53;;;2.88;;
71715;SDS011;59568;52.128;5.434;2024-02-26T12:08:05;6.47;;;3.88;;
71715;SDS011;59568;52.128;5.434;2024-02-26T12:13:04;6.90;;;3.50;;
71715;SDS011;59568;52.128;5.434;2024-02-26T12:15:38;5.50;;;3.27;;
71715;SDS011;59568;52.128;5.434;2024-02-26T12:18:12;6.47;;;3.13;;
71715;SDS011;59568;52.128;5.434;2024-02-26T12:20:44;7.70;;;3.90;;
71715;SDS011;59568;52.128;5.434;2024-02-26T12:23:15;6.13;;;3.30;;
71715;SDS011;59568;52.128;5.434;2024-02-26T12:25:45;6.30;;;3.65;;
71715;SDS011;59568;52.128;5.434;2024-02-26T12:28:14;6.90;;;3.13;;
71715;SDS011;59568;52.128;5.434;2024-02-26T12:30:42;6.05;;;2.30;;
71715;SDS011;59568;52.128;5.434;2024-02-26T12:33:09;6.78;;;3.08;;
71715;SDS011;59568;52.128;5.434;2024-02-26T12:35:36;6.80;;;3.45;;
71715;SDS011;59568;52.128;5.434;2024-02-26T12:38:03;5.38;;;2.65;;
71715;SDS011;59568;52.128;5.434;2024-02-26T12:40:31;6.10;;;2.90;;
71715;SDS011;59568;52.128;5.434;2024-02-26T12:42:58;6.45;;;3.25;;
71715;SDS011;59568;52.128;5.434;2024-02-26T12:45:25;5.57;;;3.13;;
71715;SDS011;59568;52.128;5.434;2024-02-26T12:47:52;5.22;;;2.72;;
71715;SDS011;59568;52.128;5.434;2024-02-26T12:50:20;5.35;;;3.25;;
71715;SDS011;59568;52.128;5.434;2024-02-26T12:52:47;5.93;;;3.03;;
71715;SDS011;59568;52.128;5.434;2024-02-26T12:55:17;6.82;;;3.17;;
71715;SDS011;59568;52.128;5.434;2024-02-26T12:57:47;6.22;;;3.10;;
71715;SDS011;59568;52.128;5.434;2024-02-26T13:00:16;6.28;;;2.70;;
71715;SDS011;59568;52.128;5.434;2024-02-26T13:02:49;9.60;;;3.53;;
71715;SDS011;59568;52.128;5.434;2024-02-26T13:05:17;5.87;;;2.83;;
71715;SDS011;59568;52.128;5.434;2024-02-26T13:07:46;5.82;;;2.40;;
71715;SDS011;59568;52.128;5.434;2024-02-26T13:10:14;5.03;;;2.47;;
71715;SDS011;59568;52.128;5.434;2024-02-26T13:12:45;6.35;;;3.10;;
71715;SDS011;59568;52.128;5.434;2024-02-26T13:15:16;6.60;;;2.97;;
71715;SDS011;59568;52.128;5.434;2024-02-26T13:17:44;6.47;;;3.37;;
71715;SDS011;59568;52.128;5.434;2024-02-26T13:20:12;7.65;;;3.10;;
71715;SDS011;59568;52.128;5.434;2024-02-26T13:22:41;8.10;;;3.38;;
71715;SDS011;59568;52.128;5.434;2024-02-26T13:25:08;6.47;;;3.10;;
71715;SDS011;59568;52.128;5.434;2024-02-26T13:27:35;8.02;;;3.70;;
71715;SDS011;59568;52.128;5.434;2024-02-26T13:30:09;6.50;;;3.10;;
71715;SDS011;59568;52.128;5.434;2024-02-26T13:32:38;6.65;;;2.45;;
71715;SDS011;59568;52.128;5.434;2024-02-26T13:35:10;6.03;;;2.95;;
71715;SDS011;59568;52.128;5.434;2024-02-26T13:37:39;7.45;;;3.50;;
71715;SDS011;59568;52.128;5.434;2024-02-26T13:40:10;7.00;;;3.08;;
71715;SDS011;59568;52.128;5.434;2024-02-26T13:42:38;5.27;;;2.80;;
71715;SDS011;59568;52.128;5.434;2024-02-26T13:45:06;5.18;;;3.10;;
71715;SDS011;59568;52.128;5.434;2024-02-26T13:47:34;4.63;;;2.60;;
71715;SDS011;59568;52.128;5.434;2024-02-26T13:50:02;5.97;;;2.75;;
71715;SDS011;59568;52.128;5.434;2024-02-26T13:52:29;4.75;;;2.35;;
71715;SDS011;59568;52.128;5.434;2024-02-26T13:54:58;3.43;;;1.90;;
71715;SDS011;59568;52.128;5.434;2024-02-26T13:57:26;5.82;;;2.65;;
71715;SDS011;59568;52.128;5.434;2024-02-26T13:59:53;5.40;;;2.45;;
71715;SDS011;59568;52.128;5.434;2024-02-26T14:02:21;5.45;;;3.17;;
71715;SDS011;59568;52.128;5.434;2024-02-26T14:04:48;5.88;;;2.80;;
71715;SDS011;59568;52.128;5.434;2024-02-26T14:07:15;7.03;;;2.67;;
71715;SDS011;59568;52.128;5.434;2024-02-26T14:09:44;5.18;;;2.42;;
71715;SDS011;59568;52.128;5.434;2024-02-26T14:12:16;5.60;;;2.65;;
71715;SDS011;59568;52.128;5.434;2024-02-26T14:14:48;4.95;;;2.47;;
71715;SDS011;59568;52.128;5.434;2024-02-26T14:17:15;4.72;;;2.45;;
71715;SDS011;59568;52.128;5.434;2024-02-26T14:19:42;4.93;;;2.33;;
71715;SDS011;59568;52.128;5.434;2024-02-26T14:22:11;5.95;;;2.40;;
71715;SDS011;59568;52.128;5.434;2024-02-26T14:24:38;6.68;;;2.60;;
71715;SDS011;59568;52.128;5.434;2024-02-26T14:27:09;4.43;;;2.00;;
71715;SDS011;59568;52.128;5.434;2024-02-26T14:29:41;4.93;;;2.85;;
71715;SDS011;59568;52.128;5.434;2024-02-26T14:32:09;4.30;;;1.93;;
71715;SDS011;59568;52.128;5.434;2024-02-26T14:34:37;4.18;;;2.40;;
71715;SDS011;59568;52.128;5.434;2024-02-26T14:37:04;5.40;;;2.45;;
71715;SDS011;59568;52.128;5.434;2024-02-26T14:39:32;4.28;;;2.28;;
71715;SDS011;59568;52.128;5.434;2024-02-26T14:42:00;4.32;;;2.50;;
71715;SDS011;59568;52.128;5.434;2024-02-26T14:44:27;4.50;;;2.00;;
71715;SDS011;59568;52.128;5.434;2024-02-26T14:46:54;3.72;;;1.95;;
71715;SDS011;59568;52.128;5.434;2024-02-26T14:49:21;3.78;;;1.95;;
71715;SDS011;59568;52.128;5.434;2024-02-26T14:51:48;3.67;;;2.22;;
71715;SDS011;59568;52.128;5.434;2024-02-26T14:54:15;5.88;;;2.72;;
71715;SDS011;59568;52.128;5.434;2024-02-26T14:56:43;3.33;;;1.70;;